Time;durP1;ratioP1;P1;durP2;ratioP2;P2;SDS_P1;SDS_P2;PMS_P1;PMS_P2;Temp;Humidity;BMP_temperature;BMP_pressure;BME280_temperature;BME280_humidity;BME280_pressure;Samples;Min_cycle;Max_cycle;Signal;HPM_P1;HPM_P2
2023/12/02 00:01:18;;;;;;;31.60;19.58;;;-0.90;99.90;;;;;;5062754;28;20384;-44
2023/12/02 00:03:43;;;;;;;28.10;18.50;;;-1.00;99.90;;;;;;5052306;28;20139;-43
2023/12/02 00:06:09;;;;;;;29.48;18.85;;;-1.00;99.90;;;;;;5056564;28;20406;-44
2023/12/02 00:08:35;;;;;;;35.97;22.10;;;-1.00;99.90;;;;;;5071114;28;20062;-44
2023/12/02 00:11:01;;;;;;;32.58;20.05;;;-1.00;99.90;;;;;;5069918;28;20045;-44
2023/12/02 00:13:27;;;;;;;30.92;19.90;;;-1.00;99.90;;;;;;5058583;28;20161;-43
2023/12/02 00:15:52;;;;;;;32.47;20.25;;;-1.00;99.90;;;;;;5064411;28;20390;-44
2023/12/02 00:18:19;;;;;;;31.20;19.35;;;-0.90;99.90;;;;;;5064997;28;20041;-43
2023/12/02 00:20:44;;;;;;;33.40;21.02;;;-1.00;99.90;;;;;;5064944;28;20044;-45
2023/12/02 00:23:10;;;;;;;31.80;19.73;;;-0.90;99.90;;;;;;5066556;28;20564;-43
2023/12/02 00:25:35;;;;;;;32.97;19.67;;;-0.90;99.90;;;;;;5059401;28;20119;-42
2023/12/02 00:28:01;;;;;;;30.80;19.33;;;-0.90;99.90;;;;;;5060120;28;20101;-43
2023/12/02 00:30:27;;;;;;;31.75;19.80;;;-0.90;99.90;;;;;;5071639;28;20608;-43
2023/12/02 00:32:52;;;;;;;31.83;19.88;;;-0.90;99.90;;;;;;5071524;28;20048;-43
2023/12/02 00:35:18;;;;;;;31.40;19.25;;;-0.90;99.90;;;;;;5071698;28;20102;-45
2023/12/02 00:37:43;;;;;;;32.15;20.77;;;-0.90;99.90;;;;;;5060574;28;20045;-45
2023/12/02 00:40:09;;;;;;;32.45;20.00;;;-0.90;99.90;;;;;;5065166;28;20164;-46
2023/12/02 00:42:35;;;;;;;31.08;19.80;;;-1.00;99.90;;;;;;5057924;28;20040;-43
2023/12/02 00:45:01;;;;;;;30.45;19.95;;;-0.90;99.90;;;;;;5056004;28;20040;-44
2023/12/02 00:47:26;;;;;;;34.10;19.88;;;-0.90;99.90;;;;;;5057635;28;21349;-44
2023/12/02 00:49:52;;;;;;;31.30;19.77;;;-1.00;99.90;;;;;;5058160;28;20098;-44
2023/12/02 00:52:17;;;;;;;32.83;19.85;;;-1.00;99.90;;;;;;5054304;28;20115;-42
2023/12/02 00:54:44;;;;;;;31.55;20.27;;;-1.00;99.90;;;;;;5058411;28;20486;-43
2023/12/02 00:57:10;;;;;;;32.53;19.23;;;-0.90;99.90;;;;;;5057665;28;20404;-43
2023/12/02 00:59:35;;;;;;;31.60;20.10;;;-1.00;99.90;;;;;;5057982;28;21087;-43
2023/12/02 01:02:01;;;;;;;36.00;21.40;;;-1.00;99.90;;;;;;5057017;28;20048;-43
2023/12/02 01:04:26;;;;;;;37.28;20.67;;;-1.00;99.90;;;;;;5061175;28;20161;-43
2023/12/02 01:06:52;;;;;;;34.20;20.35;;;-1.00;99.90;;;;;;5063867;28;20212;-44
2023/12/02 01:09:18;;;;;;;30.48;19.83;;;-1.10;99.90;;;;;;5062183;28;20389;-43
2023/12/02 01:11:43;;;;;;;33.38;19.50;;;-1.10;99.90;;;;;;5057118;28;20037;-44
2023/12/02 01:14:09;;;;;;;30.35;19.95;;;-1.10;99.90;;;;;;5060256;28;20039;-43
2023/12/02 01:16:34;;;;;;;34.67;20.05;;;-1.10;99.90;;;;;;5056744;28;20048;-42
2023/12/02 01:19:00;;;;;;;31.50;19.58;;;-1.10;99.90;;;;;;5064829;28;20122;-42
2023/12/02 01:21:26;;;;;;;33.45;19.77;;;-1.20;99.90;;;;;;5057705;28;20112;-43
2023/12/02 01:23:51;;;;;;;31.58;20.65;;;-1.20;99.90;;;;;;5059451;28;20121;-43
2023/12/02 01:26:17;;;;;;;33.47;20.75;;;-1.20;99.90;;;;;;5061484;28;20489;-42
2023/12/02 01:28:43;;;;;;;31.67;20.35;;;-1.30;99.90;;;;;;5062007;28;20047;-43
2023/12/02 01:31:08;;;;;;;34.10;20.73;;;-1.30;99.90;;;;;;5063065;28;20463;-43
2023/12/02 01:33:34;;;;;;;31.08;19.52;;;-1.40;99.90;;;;;;5064199;28;20044;-43
2023/12/02 01:35:59;;;;;;;33.08;20.10;;;-1.40;99.90;;;;;;5062970;28;20133;-44
2023/12/02 01:38:25;;;;;;;32.40;19.17;;;-1.50;99.90;;;;;;5064708;28;20056;-44
2023/12/02 01:40:51;;;;;;;32.17;19.73;;;-1.40;99.90;;;;;;5064340;28;20041;-44
2023/12/02 01:43:24;;;;;;;33.53;20.90;;;-1.50;99.90;;;;;;5061152;28;20094;-42
2023/12/02 01:45:49;;;;;;;34.28;20.30;;;-1.50;99.90;;;;;;5058653;28;20558;-45
2023/12/02 01:48:15;;;;;;;34.45;20.83;;;-1.60;99.90;;;;;;5066356;28;20112;-43
2023/12/02 01:50:40;;;;;;;34.08;19.70;;;-1.60;99.90;;;;;;5062789;28;20040;-43
2023/12/02 01:53:06;;;;;;;32.50;20.20;;;-1.60;99.90;;;;;;5063417;28;20063;-43
2023/12/02 01:55:32;;;;;;;33.75;21.25;;;-1.60;99.90;;;;;;5067926;28;20497;-44
2023/12/02 01:57:57;;;;;;;33.22;21.50;;;-1.70;99.90;;;;;;5059872;28;20036;-45
2023/12/02 02:00:23;;;;;;;31.27;19.90;;;-1.70;99.90;;;;;;5068007;28;20036;-45
2023/12/02 02:02:49;;;;;;;31.75;20.85;;;-1.70;99.90;;;;;;5069127;28;20044;-45
2023/12/02 02:05:15;;;;;;;35.35;20.90;;;-1.70;99.90;;;;;;5065792;28;20497;-44
2023/12/02 02:07:40;;;;;;;34.78;21.02;;;-1.70;99.90;;;;;;5069580;28;20044;-44
2023/12/02 02:10:07;;;;;;;36.17;21.42;;;-1.70;99.90;;;;;;5065077;28;20500;-45
2023/12/02 02:12:32;;;;;;;35.70;21.10;;;-1.70;99.90;;;;;;5061964;28;20048;-42
2023/12/02 02:14:58;;;;;;;36.42;21.48;;;-1.70;99.90;;;;;;5064963;28;20066;-43
2023/12/02 02:17:23;;;;;;;36.35;21.90;;;-1.70;99.90;;;;;;5062752;28;20049;-43
2023/12/02 02:19:49;;;;;;;36.35;21.70;;;-1.60;99.90;;;;;;5064833;28;20045;-43
2023/12/02 02:22:14;;;;;;;33.20;20.70;;;-1.60;99.90;;;;;;5061372;28;20041;-42
2023/12/02 02:24:40;;;;;;;34.60;20.55;;;-1.60;99.90;;;;;;5063304;28;20032;-44
2023/12/02 02:27:06;;;;;;;37.35;21.52;;;-1.60;99.90;;;;;;5063539;28;20036;-44
2023/12/02 02:29:31;;;;;;;38.28;21.88;;;-1.60;99.90;;;;;;5063452;28;20126;-43
2023/12/02 02:31:57;;;;;;;35.95;21.52;;;-1.60;99.90;;;;;;5065335;28;20139;-43
2023/12/02 02:34:22;;;;;;;37.67;21.25;;;-1.60;99.90;;;;;;5063909;28;20048;-43
2023/12/02 02:36:48;;;;;;;32.78;20.25;;;-1.60;99.90;;;;;;5057468;28;20037;-43
2023/12/02 02:39:14;;;;;;;35.63;20.80;;;-1.60;99.90;;;;;;5068793;28;20781;-44
2023/12/02 02:41:39;;;;;;;38.65;21.90;;;-1.60;99.90;;;;;;5060894;28;20045;-44
2023/12/02 02:44:05;;;;;;;36.03;21.30;;;-1.60;99.90;;;;;;5060309;28;20040;-45
2023/12/02 02:46:31;;;;;;;35.88;22.33;;;-1.70;99.90;;;;;;5062625;28;20045;-43
2023/12/02 02:48:57;;;;;;;37.88;21.85;;;-1.60;99.90;;;;;;5060831;28;20478;-44
2023/12/02 02:51:22;;;;;;;35.38;21.75;;;-1.70;99.90;;;;;;5068184;28;20044;-44
2023/12/02 02:53:48;;;;;;;36.53;22.25;;;-1.60;99.90;;;;;;5065172;28;20044;-45
2023/12/02 02:56:13;;;;;;;35.55;21.00;;;-1.60;99.90;;;;;;5066889;28;20045;-43
2023/12/02 02:58:39;;;;;;;37.47;22.02;;;-1.70;99.90;;;;;;5063468;28;20037;-44
2023/12/02 03:01:05;;;;;;;36.25;21.00;;;-1.70;99.90;;;;;;5068586;28;20512;-44
2023/12/02 03:03:30;;;;;;;37.10;21.55;;;-1.60;99.90;;;;;;5055304;28;20032;-42
2023/12/02 03:05:56;;;;;;;39.80;22.90;;;-1.60;99.90;;;;;;5063422;28;20537;-43
2023/12/02 03:08:22;;;;;;;39.15;22.90;;;-1.60;99.90;;;;;;5064504;28;20033;-43
2023/12/02 03:10:48;;;;;;;38.72;22.00;;;-1.60;99.90;;;;;;5058122;28;20044;-44
2023/12/02 03:13:14;;;;;;;40.88;23.30;;;-1.60;99.90;;;;;;5063766;28;20497;-42
2023/12/02 03:15:39;;;;;;;38.30;22.02;;;-1.60;99.90;;;;;;5065381;28;20041;-44
2023/12/02 03:18:05;;;;;;;40.03;23.35;;;-1.60;99.90;;;;;;5064831;28;20040;-42
2023/12/02 03:20:30;;;;;;;39.60;21.60;;;-1.60;99.90;;;;;;5065579;28;20040;-42
2023/12/02 03:22:56;;;;;;;35.45;21.70;;;-1.60;99.90;;;;;;5060906;28;20512;-45
2023/12/02 03:25:21;;;;;;;42.55;23.77;;;-1.60;99.90;;;;;;5063860;28;20118;-43
2023/12/02 03:27:47;;;;;;;40.35;22.67;;;-1.60;99.90;;;;;;5066305;28;20029;-44
2023/12/02 03:30:13;;;;;;;34.72;21.30;;;-1.60;99.90;;;;;;5064655;28;20436;-44
2023/12/02 03:32:39;;;;;;;37.60;22.77;;;-1.60;99.90;;;;;;5055162;28;20053;-44
2023/12/02 03:35:08;;;;;;;40.35;22.83;;;-1.60;99.90;;;;;;5063413;28;20048;-44
2023/12/02 03:37:35;;;;;;;35.83;21.98;;;-1.60;99.90;;;;;;5061725;28;20437;-44
2023/12/02 03:40:00;;;;;;;36.90;23.08;;;-1.60;99.90;;;;;;5063553;28;20406;-44
2023/12/02 03:42:26;;;;;;;35.90;22.08;;;-1.60;99.90;;;;;;5063299;28;20062;-43
2023/12/02 03:44:51;;;;;;;40.30;23.27;;;-1.60;99.90;;;;;;5058492;28;20040;-44
2023/12/02 03:47:17;;;;;;;41.03;23.65;;;-1.50;99.90;;;;;;5056148;28;20044;-44
2023/12/02 03:49:43;;;;;;;40.55;22.67;;;-1.60;99.90;;;;;;5064574;28;20086;-44
2023/12/02 03:52:09;;;;;;;37.58;23.15;;;-1.50;99.90;;;;;;5063591;28;20068;-43
2023/12/02 03:54:35;;;;;;;38.80;23.92;;;-1.50;99.90;;;;;;5061928;28;20044;-42
2023/12/02 03:57:00;;;;;;;41.72;23.80;;;-1.50;99.90;;;;;;5040426;28;20101;-45
2023/12/02 03:59:26;;;;;;;42.28;23.80;;;-1.50;99.90;;;;;;5068624;28;20037;-44
2023/12/02 04:01:51;;;;;;;39.40;23.88;;;-1.50;99.90;;;;;;5066168;28;20062;-43
2023/12/02 04:04:18;;;;;;;41.22;22.90;;;-1.50;99.90;;;;;;5064108;28;20043;-44
2023/12/02 04:06:44;;;;;;;39.15;23.10;;;-1.50;99.90;;;;;;5062508;28;20094;-43
2023/12/02 04:09:10;;;;;;;38.13;22.50;;;-1.40;99.90;;;;;;5058760;28;20044;-42
2023/12/02 04:11:36;;;;;;;38.35;23.15;;;-1.50;99.90;;;;;;5062449;28;20033;-43
2023/12/02 04:14:01;;;;;;;37.50;22.77;;;-1.50;99.90;;;;;;5065959;28;20045;-44
2023/12/02 04:16:27;;;;;;;39.60;22.80;;;-1.40;99.90;;;;;;5067881;28;20507;-43
2023/12/02 04:18:53;;;;;;;41.42;23.85;;;-1.40;99.90;;;;;;5061016;28;20040;-43
2023/12/02 04:21:18;;;;;;;40.85;23.52;;;-1.40;99.90;;;;;;5064065;28;20044;-44
2023/12/02 04:23:44;;;;;;;38.55;22.85;;;-1.50;99.90;;;;;;5062960;28;20036;-44
2023/12/02 04:26:10;;;;;;;39.60;23.02;;;-1.40;99.90;;;;;;5061013;28;20045;-46
2023/12/02 04:28:36;;;;;;;39.97;23.75;;;-1.40;99.90;;;;;;5062448;28;20123;-43
2023/12/02 04:31:02;;;;;;;41.63;24.67;;;-1.40;99.90;;;;;;5065103;28;20147;-44
2023/12/02 04:33:28;;;;;;;40.13;23.70;;;-1.40;99.90;;;;;;5064729;28;20171;-43
2023/12/02 04:35:54;;;;;;;42.88;24.70;;;-1.40;99.90;;;;;;5061203;28;20037;-45
2023/12/02 04:38:20;;;;;;;39.38;22.30;;;-1.40;99.90;;;;;;5062047;28;20094;-42
2023/12/02 04:40:45;;;;;;;45.65;25.83;;;-1.40;99.90;;;;;;5063913;28;20458;-46
2023/12/02 04:43:11;;;;;;;40.17;23.73;;;-1.40;99.90;;;;;;5066164;28;20159;-44
2023/12/02 04:45:36;;;;;;;40.88;23.73;;;-1.40;99.90;;;;;;5066337;28;20037;-44
2023/12/02 04:48:02;;;;;;;44.53;23.73;;;-1.40;99.90;;;;;;5064293;28;20040;-44
2023/12/02 04:50:28;;;;;;;41.58;23.35;;;-1.40;99.90;;;;;;5058711;28;20043;-47
2023/12/02 04:52:53;;;;;;;38.65;23.52;;;-1.40;99.90;;;;;;5060490;28;20422;-45
2023/12/02 04:55:19;;;;;;;39.45;23.33;;;-1.40;99.90;;;;;;5058791;28;20041;-45
2023/12/02 04:57:45;;;;;;;45.72;24.63;;;-1.30;99.90;;;;;;5064941;28;20041;-44
2023/12/02 05:00:16;;;;;;;42.42;24.17;;;-1.40;99.90;;;;;;5061742;28;20033;-48
2023/12/02 05:02:42;;;;;;;47.72;25.80;;;-1.30;99.90;;;;;;5060504;28;20114;-43
2023/12/02 05:05:09;;;;;;;44.65;25.73;;;-1.30;99.90;;;;;;5059972;28;20085;-43
2023/12/02 05:07:35;;;;;;;43.50;24.83;;;-1.30;99.90;;;;;;5065028;28;20523;-44
2023/12/02 05:10:01;;;;;;;48.13;25.88;;;-1.30;99.90;;;;;;5065640;28;20409;-46
2023/12/02 05:12:27;;;;;;;47.95;25.92;;;-1.30;99.90;;;;;;5064724;28;20044;-45
2023/12/02 05:14:52;;;;;;;47.38;27.00;;;-1.30;99.90;;;;;;5065427;28;20051;-45
2023/12/02 05:17:18;;;;;;;51.22;27.90;;;-1.30;99.90;;;;;;5058024;28;20047;-43
2023/12/02 05:19:43;;;;;;;44.00;25.23;;;-1.40;99.90;;;;;;5061127;28;20440;-44
2023/12/02 05:22:09;;;;;;;48.60;25.98;;;-1.40;99.90;;;;;;5064170;28;20058;-45
2023/12/02 05:24:36;;;;;;;46.67;24.85;;;-1.40;99.90;;;;;;5063807;28;20048;-46
2023/12/02 05:27:02;;;;;;;46.53;26.23;;;-1.40;99.90;;;;;;5059896;28;20409;-44
2023/12/02 05:29:28;;;;;;;49.80;27.00;;;-1.50;99.90;;;;;;5062009;28;20181;-43
2023/12/02 05:31:53;;;;;;;49.70;27.02;;;-1.50;99.90;;;;;;5064105;28;20067;-43
2023/12/02 05:34:19;;;;;;;48.30;26.55;;;-1.50;99.90;;;;;;5064870;28;20056;-44
2023/12/02 05:36:48;;;;;;;51.80;28.02;;;-1.50;99.90;;;;;;5065508;28;20051;-45
2023/12/02 05:39:14;;;;;;;52.47;28.10;;;-1.50;99.90;;;;;;5067147;28;20043;-44
2023/12/02 05:41:42;;;;;;;52.72;27.67;;;-1.40;99.90;;;;;;5068142;28;20037;-46
2023/12/02 05:44:09;;;;;;;50.05;27.48;;;-1.40;99.90;;;;;;5065010;28;20060;-43
2023/12/02 05:46:35;;;;;;;52.92;27.77;;;-1.40;99.90;;;;;;5069059;28;20032;-43
2023/12/02 05:49:01;;;;;;;49.15;28.10;;;-1.30;99.90;;;;;;5071344;28;20044;-45
2023/12/02 05:51:26;;;;;;;52.38;27.85;;;-1.30;99.90;;;;;;5065621;28;20509;-45
2023/12/02 05:53:52;;;;;;;50.33;27.13;;;-1.20;99.90;;;;;;5066259;28;20458;-43
2023/12/02 05:56:21;;;;;;;47.55;26.48;;;-1.30;99.90;;;;;;5066028;28;20028;-44
2023/12/02 05:58:50;;;;;;;48.60;26.73;;;-1.20;99.90;;;;;;5068703;28;20135;-43
2023/12/02 06:01:20;;;;;;;48.03;26.83;;;-1.20;99.90;;;;;;5070043;28;20396;-43
2023/12/02 06:03:46;;;;;;;49.88;27.77;;;-1.20;99.90;;;;;;5065531;28;20045;-44
2023/12/02 06:06:12;;;;;;;50.55;26.77;;;-1.20;99.90;;;;;;5065916;28;20060;-44
2023/12/02 06:08:37;;;;;;;48.97;26.30;;;-1.20;99.90;;;;;;5069845;28;20043;-43
2023/12/02 06:11:03;;;;;;;49.05;27.52;;;-1.20;99.90;;;;;;5074407;28;20375;-44
2023/12/02 06:13:29;;;;;;;52.42;27.42;;;-1.20;99.90;;;;;;5070871;28;20460;-44
2023/12/02 06:15:55;;;;;;;50.30;27.08;;;-1.20;99.90;;;;;;5060405;28;20041;-43
2023/12/02 06:18:20;;;;;;;48.17;27.27;;;-1.10;99.90;;;;;;5067010;28;20457;-43
2023/12/02 06:20:46;;;;;;;50.10;26.38;;;-1.20;99.90;;;;;;5069347;28;20501;-43
2023/12/02 06:23:11;;;;;;;48.08;26.13;;;-1.10;99.90;;;;;;5065389;28;20045;-43
2023/12/02 06:25:37;;;;;;;45.97;25.65;;;-1.10;99.90;;;;;;5064776;28;20362;-45
2023/12/02 06:28:04;;;;;;;46.00;25.58;;;-1.10;99.90;;;;;;5065626;28;20441;-43
2023/12/02 06:30:29;;;;;;;45.20;25.80;;;-1.10;99.90;;;;;;5060735;28;20044;-45
2023/12/02 06:32:55;;;;;;;46.75;25.63;;;-1.10;99.90;;;;;;5059528;28;20044;-44
2023/12/02 06:35:22;;;;;;;50.58;27.33;;;-1.10;99.90;;;;;;5065000;28;20052;-43
2023/12/02 06:37:47;;;;;;;48.08;25.75;;;-1.00;99.90;;;;;;5063735;28;21803;-43
2023/12/02 06:40:13;;;;;;;45.83;25.35;;;-1.00;99.90;;;;;;5064273;28;20432;-44
2023/12/02 06:42:39;;;;;;;48.67;26.23;;;-0.90;99.90;;;;;;5068470;28;20048;-43
2023/12/02 06:45:05;;;;;;;44.63;25.45;;;-1.00;99.90;;;;;;5065053;28;20033;-43
2023/12/02 06:47:31;;;;;;;46.47;26.55;;;-1.00;99.90;;;;;;5069103;28;20033;-45
2023/12/02 06:49:56;;;;;;;44.88;25.20;;;-0.90;99.90;;;;;;5065101;28;20041;-44
2023/12/02 06:52:22;;;;;;;45.60;26.77;;;-0.90;99.90;;;;;;5064100;28;20051;-46
2023/12/02 06:54:48;;;;;;;45.53;25.55;;;-0.90;99.90;;;;;;5066730;28;20047;-43
2023/12/02 06:57:13;;;;;;;45.60;25.55;;;-0.90;99.90;;;;;;5066354;28;20500;-44
2023/12/02 06:59:39;;;;;;;46.80;25.58;;;-0.90;99.90;;;;;;5067801;28;20074;-43
2023/12/02 07:02:04;;;;;;;47.20;27.60;;;-0.90;99.90;;;;;;5066109;28;20080;-46
2023/12/02 07:04:30;;;;;;;48.80;25.75;;;-0.90;99.90;;;;;;5066236;28;20039;-43
2023/12/02 07:06:55;;;;;;;47.88;27.25;;;-0.90;99.90;;;;;;5068757;28;20052;-43
2023/12/02 07:09:21;;;;;;;48.63;27.08;;;-0.90;99.90;;;;;;5063879;28;20037;-43
2023/12/02 07:11:47;;;;;;;45.40;25.88;;;-0.90;99.90;;;;;;5062791;28;20143;-43
2023/12/02 07:14:12;;;;;;;41.65;25.00;;;-0.90;99.90;;;;;;5069210;28;20029;-45
2023/12/02 07:16:38;;;;;;;47.33;26.92;;;-0.90;99.90;;;;;;5066617;28;20094;-45
2023/12/02 07:19:04;;;;;;;47.38;27.63;;;-0.90;99.90;;;;;;5067107;28;20106;-44
2023/12/02 07:21:29;;;;;;;48.50;27.05;;;-0.90;99.90;;;;;;5067708;28;20036;-44
2023/12/02 07:23:55;;;;;;;45.22;25.88;;;-0.90;99.90;;;;;;5068181;28;20562;-44
2023/12/02 07:26:20;;;;;;;46.83;25.98;;;-0.90;99.90;;;;;;5065648;28;20520;-46
2023/12/02 07:28:46;;;;;;;48.15;27.08;;;-0.90;99.90;;;;;;5064583;28;20033;-45
2023/12/02 07:31:16;;;;;;;48.70;27.17;;;-0.90;99.90;;;;;;5064494;28;20059;-43
2023/12/02 07:33:42;;;;;;;51.30;27.55;;;-1.00;99.90;;;;;;5066289;28;20052;-44
2023/12/02 07:36:08;;;;;;;51.33;27.70;;;-1.00;99.90;;;;;;5057706;28;20045;-44
2023/12/02 07:38:34;;;;;;;49.65;26.92;;;-0.90;99.90;;;;;;5058992;28;20072;-48
2023/12/02 07:40:59;;;;;;;50.22;26.00;;;-0.90;99.90;;;;;;5057914;28;20044;-45
2023/12/02 07:43:25;;;;;;;50.63;27.83;;;-0.90;99.90;;;;;;5064195;28;20072;-44
2023/12/02 07:45:51;;;;;;;50.65;27.58;;;-0.90;99.90;;;;;;5064377;28;20032;-45
2023/12/02 07:48:16;;;;;;;47.65;26.92;;;-0.90;99.90;;;;;;5059717;28;20068;-43
2023/12/02 07:50:42;;;;;;;50.22;27.05;;;-0.90;99.90;;;;;;5061786;28;20143;-44
2023/12/02 07:53:07;;;;;;;49.13;26.63;;;-0.90;99.90;;;;;;5054421;28;20049;-43
2023/12/02 07:55:33;;;;;;;50.97;27.80;;;-0.80;99.90;;;;;;5055150;28;20375;-47
2023/12/02 07:57:59;;;;;;;51.58;26.70;;;-0.80;99.90;;;;;;5062933;28;20040;-44
2023/12/02 08:00:25;;;;;;;48.28;26.02;;;-0.80;99.90;;;;;;5065428;28;20041;-44
2023/12/02 08:02:50;;;;;;;51.10;27.90;;;-0.80;99.90;;;;;;5047758;28;20102;-44
2023/12/02 08:05:17;;;;;;;51.65;27.63;;;-0.80;99.90;;;;;;5059407;28;20037;-44
2023/12/02 08:07:42;;;;;;;47.00;26.48;;;-0.80;99.90;;;;;;5064805;28;20036;-46
2023/12/02 08:10:09;;;;;;;49.38;26.77;;;-0.70;99.90;;;;;;5064265;28;20063;-45
2023/12/02 08:12:35;;;;;;;48.67;27.48;;;;;;;;;;5066807;28;20064;-43
2023/12/02 08:15:01;;;;;;;56.03;28.48;;;-0.70;99.90;;;;;;5062538;28;20486;-43
2023/12/02 08:17:28;;;;;;;45.13;26.10;;;-0.70;99.90;;;;;;5063299;28;20045;-44
2023/12/02 08:19:53;;;;;;;46.08;24.92;;;-0.60;99.90;;;;;;5066859;28;20553;-46
2023/12/02 08:22:24;;;;;;;48.05;27.05;;;-0.60;99.90;;;;;;5060989;28;20147;-46
2023/12/02 08:24:52;;;;;;;47.50;26.00;;;-0.60;99.90;;;;;;5065292;28;20072;-43
2023/12/02 08:27:18;;;;;;;47.25;26.65;;;-0.60;99.90;;;;;;5065519;28;20032;-43
2023/12/02 08:29:44;;;;;;;47.20;25.92;;;-0.50;99.90;;;;;;5068610;28;20040;-44
2023/12/02 08:32:10;;;;;;;42.50;24.15;;;-0.50;99.90;;;;;;5065663;28;20405;-44
2023/12/02 08:34:36;;;;;;;47.63;26.48;;;-0.50;99.90;;;;;;5069153;28;20135;-43
2023/12/02 08:37:02;;;;;;;47.38;27.02;;;-0.40;99.90;;;;;;5061800;28;20487;-43
2023/12/02 08:39:28;;;;;;;41.40;24.42;;;-0.40;99.90;;;;;;5064373;28;20063;-43
2023/12/02 08:41:53;;;;;;;45.58;26.13;;;-0.30;99.90;;;;;;5056544;28;20103;-45
2023/12/02 08:44:19;;;;;;;49.35;28.00;;;-0.30;99.90;;;;;;5059411;28;20109;-44
2023/12/02 08:46:45;;;;;;;47.95;25.70;;;-0.30;99.90;;;;;;5065145;28;20086;-46
2023/12/02 08:49:10;;;;;;;46.83;26.55;;;-0.20;99.90;;;;;;5063690;28;20040;-45
2023/12/02 08:51:36;;;;;;;48.95;27.08;;;-0.20;99.90;;;;;;5054935;28;20041;-45
2023/12/02 08:54:03;;;;;;;45.28;25.75;;;-0.20;99.90;;;;;;5064340;28;20032;-44
2023/12/02 08:56:29;;;;;;;45.65;25.80;;;-1.70;99.90;;;;;;5058293;28;20116;-44
2023/12/02 08:58:54;;;;;;;47.00;27.17;;;-0.10;99.90;;;;;;5069255;28;20456;-43
2023/12/02 09:01:23;;;;;;;48.03;26.67;;;-0.10;99.90;;;;;;5065075;28;20066;-45
2023/12/02 09:03:49;;;;;;;46.83;27.13;;;-0.10;99.90;;;;;;5069764;28;20049;-43
2023/12/02 09:06:14;;;;;;;45.08;26.13;;;-0.10;99.90;;;;;;5070614;28;20037;-45
2023/12/02 09:08:40;;;;;;;42.83;25.27;;;-0.10;99.90;;;;;;5070893;28;20044;-44
2023/12/02 09:11:06;;;;;;;46.92;26.88;;;0.00;99.90;;;;;;5068335;28;20070;-45
2023/12/02 09:13:41;;;;;;;49.00;27.13;;;0.00;99.90;;;;;;5067535;28;20376;-47
2023/12/02 09:16:23;;;;;;;46.50;26.73;;;0.00;99.90;;;;;;5069985;28;20052;-45
2023/12/02 09:18:49;;;;;;;45.15;25.50;;;0.10;99.90;;;;;;5072028;28;20138;-44
2023/12/02 09:21:20;;;;;;;46.40;27.17;;;0.00;99.90;;;;;;5072617;28;20070;-47
2023/12/02 09:23:47;;;;;;;47.67;27.85;;;0.10;99.90;;;;;;5065636;28;20044;-46
2023/12/02 09:26:36;;;;;;;46.33;27.30;;;0.10;99.90;;;;;;5061583;28;20063;-44
2023/12/02 09:29:02;;;;;;;45.63;27.77;;;0.20;99.90;;;;;;5060938;28;20036;-44
2023/12/02 09:31:27;;;;;;;44.10;26.15;;;0.20;99.90;;;;;;5070241;28;20133;-43
2023/12/02 09:34:04;;;;;;;43.20;25.88;;;0.20;99.90;;;;;;5060656;28;20291;-44
2023/12/02 09:36:41;;;;;;;44.10;26.48;;;0.30;99.90;;;;;;5059957;28;20390;-43
2023/12/02 09:39:12;;;;;;;45.15;27.13;;;0.20;99.90;;;;;;5057737;28;20040;-43
2023/12/02 09:41:45;;;;;;;44.60;27.15;;;0.20;99.90;;;;;;5059348;28;20045;-44
2023/12/02 09:44:42;;;;;;;39.08;24.48;;;0.20;99.90;;;;;;5064320;28;20135;-43
2023/12/02 09:47:17;;;;;;;45.65;26.48;;;0.30;99.90;;;;;;5060135;28;20036;-47
2023/12/02 09:49:52;;;;;;;45.42;26.13;;;0.30;99.90;;;;;;5069345;28;20080;-44
2023/12/02 09:53:13;;;;;;;44.75;26.13;;;0.30;99.90;;;;;;5068786;28;20456;-43
2023/12/02 09:55:54;;;;;;;43.67;25.23;;;0.30;99.90;;;;;;5088936;28;20294;-45
2023/12/02 09:58:24;;;;;;;45.00;26.40;;;0.20;99.90;;;;;;5086440;28;20083;-44
2023/12/02 10:01:16;;;;;;;44.35;26.98;;;0.20;99.90;;;;;;5085965;28;20509;-44
2023/12/02 10:04:02;;;;;;;42.28;25.95;;;0.30;99.90;;;;;;5085339;28;20051;-45
2023/12/02 10:06:50;;;;;;;46.58;27.10;;;0.30;99.90;;;;;;5090131;28;20093;-43
2023/12/02 10:09:40;;;;;;;45.60;25.38;;;0.30;99.90;;;;;;5085881;28;20052;-44
2023/12/02 10:12:25;;;;;;;47.08;26.92;;;0.30;99.90;;;;;;5076717;28;20079;-45
2023/12/02 10:15:01;;;;;;;47.28;26.95;;;0.30;99.90;;;;;;5060908;28;20123;-45
2023/12/02 10:17:30;;;;;;;45.63;26.75;;;0.20;99.90;;;;;;5084743;28;20047;-44
2023/12/02 10:20:11;;;;;;;44.13;26.60;;;0.30;99.90;;;;;;5090732;28;20052;-43
2023/12/02 10:22:45;;;;;;;44.97;27.50;;;0.40;99.90;;;;;;5085064;28;20040;-44
2023/12/02 10:25:38;;;;;;;45.28;26.90;;;0.50;99.90;;;;;;5073410;28;20048;-44
2023/12/02 10:28:20;;;;;;;44.85;27.35;;;0.50;99.90;;;;;;5085127;28;20049;-43
2023/12/02 10:30:50;;;;;;;47.40;27.58;;;0.60;99.90;;;;;;5083224;28;20406;-43
2023/12/02 10:33:38;;;;;;;45.58;27.60;;;0.60;99.90;;;;;;5065727;28;20060;-43
2023/12/02 10:36:08;;;;;;;49.28;28.55;;;0.70;99.90;;;;;;5058985;28;20397;-44
2023/12/02 10:38:57;;;;;;;44.22;27.38;;;0.70;99.90;;;;;;5057443;28;20032;-43
2023/12/02 10:41:46;;;;;;;47.85;28.02;;;0.70;99.90;;;;;;5061251;28;20080;-44
2023/12/02 10:44:16;;;;;;;47.78;28.73;;;0.80;99.90;;;;;;5066959;28;20032;-44
2023/12/02 10:46:43;;;;;;;41.13;24.30;;;0.90;99.90;;;;;;5072261;28;20123;-43
2023/12/02 10:49:11;;;;;;;50.03;27.85;;;0.90;99.90;;;;;;5065562;28;20094;-43
2023/12/02 10:51:40;;;;;;;42.30;26.80;;;0.90;99.90;;;;;;5068351;28;20120;-44
2023/12/02 10:54:07;;;;;;;43.30;25.77;;;1.00;99.90;;;;;;5069887;28;20448;-44
2023/12/02 10:56:38;;;;;;;48.25;27.60;;;1.00;99.90;;;;;;5061922;28;20041;-43
2023/12/02 10:59:04;;;;;;;43.03;25.70;;;1.20;99.90;;;;;;5060397;28;20047;-45
2023/12/02 11:01:33;;;;;;;40.60;26.10;;;;;;;;;;5070630;28;20048;-44
2023/12/02 11:04:23;;;;;;;44.20;26.13;;;1.10;99.90;;;;;;5059343;28;20072;-43
2023/12/02 11:07:01;;;;;;;44.88;27.83;;;1.10;99.90;;;;;;5064189;28;20445;-44
2023/12/02 11:09:48;;;;;;;44.13;27.20;;;1.10;99.90;;;;;;5059984;28;20045;-44
2023/12/02 11:12:33;;;;;;;43.15;26.70;;;1.00;99.90;;;;;;5060688;28;20049;-43
2023/12/02 11:15:09;;;;;;;42.08;26.58;;;1.10;99.90;;;;;;5064480;28;20052;-43
2023/12/02 11:17:59;;;;;;;44.78;26.95;;;1.20;99.90;;;;;;5062590;28;20044;-44
2023/12/02 11:20:49;;;;;;;41.85;25.92;;;1.20;99.90;;;;;;5061646;28;20048;-45
2023/12/02 11:23:21;;;;;;;43.15;27.42;;;1.20;99.90;;;;;;5064317;28;20044;-44
2023/12/02 11:25:58;;;;;;;42.28;26.60;;;1.30;99.90;;;;;;5064549;28;20048;-44
2023/12/02 11:28:40;;;;;;;42.38;26.08;;;1.40;99.90;;;;;;5064534;28;20522;-44
2023/12/02 11:31:12;;;;;;;45.05;27.92;;;1.40;99.90;;;;;;5064333;28;20068;-45
2023/12/02 11:34:04;;;;;;;44.65;28.20;;;1.50;99.90;;;;;;5062853;28;20049;-43
2023/12/02 11:36:56;;;;;;;41.25;27.30;;;1.50;99.90;;;;;;5063923;28;20074;-45
2023/12/02 11:39:40;;;;;;;42.95;27.17;;;1.50;99.90;;;;;;5062370;28;20463;-44
2023/12/02 11:42:18;;;;;;;42.05;26.85;;;1.60;99.90;;;;;;5064031;28;20401;-44
2023/12/02 11:44:58;;;;;;;43.58;26.77;;;1.50;99.90;;;;;;5067599;28;20044;-44
2023/12/02 11:47:49;;;;;;;43.45;27.85;;;1.60;99.90;;;;;;5064144;28;20040;-43
2023/12/02 11:50:52;;;;;;;39.63;23.90;;;1.70;99.90;;;;;;5065680;28;20521;-44
2023/12/02 11:53:53;;;;;;;40.72;26.83;;;1.70;99.90;;;;;;5063961;28;20048;-43
2023/12/02 11:56:21;;;;;;;41.55;26.55;;;1.60;99.90;;;;;;5070309;28;20041;-44
2023/12/02 11:58:53;;;;;;;;;;;1.60;99.90;;;;;;5069768;28;20046;-44
2023/12/02 12:01:44;;;;;;;41.13;25.95;;;1.70;99.90;;;;;;5066332;28;19959;-45
2023/12/02 12:04:15;;;;;;;44.58;28.25;;;1.70;99.90;;;;;;5067326;28;20036;-43
2023/12/02 12:07:09;;;;;;;40.72;26.98;;;1.70;99.90;;;;;;5066988;28;20072;-44
2023/12/02 12:09:43;;;;;;;43.20;27.05;;;;;;;;;;5061656;28;20036;-45
2023/12/02 12:12:11;;;;;;;43.97;27.92;;;1.80;99.90;;;;;;5061200;28;20123;-44
2023/12/02 12:14:37;;;;;;;41.65;27.42;;;1.90;99.90;;;;;;5044828;28;20110;-47
2023/12/02 12:17:04;;;;;;;39.42;26.55;;;;;;;;;;5065724;28;20041;-45
2023/12/02 12:19:30;;;;;;;42.03;27.38;;;2.00;99.90;;;;;;5060817;28;20533;-45
2023/12/02 12:21:56;;;;;;;42.92;27.52;;;2.00;99.90;;;;;;5065482;28;20063;-43
2023/12/02 12:24:21;;;;;;;42.83;26.85;;;2.00;99.90;;;;;;5046939;28;20040;-43
2023/12/02 12:26:48;;;;;;;41.40;27.40;;;2.00;99.90;;;;;;5065132;28;20525;-44
2023/12/02 12:29:15;;;;;;;40.08;24.58;;;1.90;99.90;;;;;;5063241;28;20045;-45
2023/12/02 12:31:42;;;;;;;40.93;25.80;;;1.90;99.90;;;;;;5062050;28;20060;-46
2023/12/02 12:34:14;;;;;;;43.40;27.02;;;1.90;99.90;;;;;;5072604;28;20289;-48
2023/12/02 12:36:41;;;;;;;41.33;26.73;;;1.90;99.90;;;;;;5059013;28;20067;-43
2023/12/02 12:39:07;;;;;;;43.88;27.48;;;1.90;99.90;;;;;;5063890;28;20048;-47